»·PEaware :: SWA549 KLGB-KSJC

SWA549 :: KLGB-KSJC

FLIGHT INFORMATION

Flight Status: Arrived
Operator:
Southwest Airlines
More flights by this operator :: More flights under this callsign
Pilot: Dave P. (45)
Aircraft: BOEING 737-700
(B737)
More flights by this aircraft type
Origin: KLGB Long Beach
United States
Destination: KSJC Mineta San Jose Intl
United States
More flights between these airports :: More routes between these airports
Route: +TOPMM4 IKAYE RZS SCTRR TROXX SILCN4
File this flight plan on PilotEdge
Remarks:
Altitude:
(Current/Filed)
36,000ft
Speed:
(Current/Filed)
464kts
Departed: 08-Nov-20 08:34 AM
Arrived: 08-Nov-20 09:35 AM
Distance/Time
Traveled:
281nm/1:01
Distance/Time
To Go:
Arrived

Flight Plot

Page will automatically refresh every two minutes.

Flight plan parsing failed; only flown route is shown


Map Options




Map Legend


Flown Route
Filed Route
Departure Airport
Arrival Airport
Navaid (VOR, NDB)
Fix

Horizontal Profiles

Position Reports

Time Latitude Longitude Heading Altitude Ground
Speed
08-Nov-20 07:50 33.819012 -118.145941 90 68ft 0kts
08-Nov-20 07:51 33.819012 -118.145941 90 68ft 0kts
08-Nov-20 07:52 33.819012 -118.145941 90 68ft 0kts
08-Nov-20 07:53 33.819012 -118.145941 90 68ft 0kts
08-Nov-20 07:54 33.819012 -118.145941 90 68ft 0kts
08-Nov-20 07:55 33.819012 -118.145941 90 68ft 0kts
08-Nov-20 07:56 33.819012 -118.145941 90 68ft 0kts
08-Nov-20 07:57 33.819012 -118.145941 90 68ft 0kts
08-Nov-20 07:58 33.819012 -118.145941 90 68ft 0kts
08-Nov-20 07:59 33.819012 -118.145941 90 68ft 0kts
08-Nov-20 08:00 33.819012 -118.145941 90 68ft 0kts
08-Nov-20 08:01 33.819012 -118.145941 90 68ft 0kts
08-Nov-20 08:02 33.819012 -118.145941 90 68ft 0kts
08-Nov-20 08:03 33.819012 -118.145941 90 68ft 0kts
08-Nov-20 08:04 33.819012 -118.145941 90 68ft 0kts
08-Nov-20 08:05 33.819012 -118.145941 90 68ft 0kts
08-Nov-20 08:06 33.819012 -118.145941 90 68ft 0kts
08-Nov-20 08:07 33.819012 -118.145941 90 68ft 0kts
08-Nov-20 08:08 33.819012 -118.145941 90 68ft 0kts
08-Nov-20 08:09 33.819012 -118.145941 90 68ft 0kts
08-Nov-20 08:10 33.819012 -118.145941 90 68ft 0kts
08-Nov-20 08:11 33.819012 -118.145941 90 68ft 0kts
08-Nov-20 08:12 33.819012 -118.145941 90 68ft 0kts
08-Nov-20 08:13 33.819012 -118.145941 90 68ft 0kts
08-Nov-20 08:14 33.819012 -118.145941 90 68ft 0kts
08-Nov-20 08:15 33.819012 -118.145941 90 68ft 0kts
08-Nov-20 08:16 33.819012 -118.145941 90 68ft 0kts
08-Nov-20 08:17 33.819012 -118.145941 90 68ft 0kts
08-Nov-20 08:18 33.819012 -118.145941 90 68ft 0kts
08-Nov-20 08:19 33.819012 -118.145941 90 68ft 0kts
08-Nov-20 08:20 33.819012 -118.145941 90 68ft 0kts
08-Nov-20 08:21 33.819012 -118.145941 90 68ft 0kts
08-Nov-20 08:22 33.819012 -118.145941 90 68ft 0kts
08-Nov-20 08:23 33.819012 -118.145941 90 68ft 0kts
08-Nov-20 08:24 33.819012 -118.145941 90 68ft 0kts
08-Nov-20 08:25 33.819068 -118.146576 153 68ft 2kts
08-Nov-20 08:26 33.819134 -118.146599 173 68ft 0kts
08-Nov-20 08:27 33.819134 -118.146599 173 68ft 0kts
08-Nov-20 08:28 33.817953 -118.147006 180 68ft 19kts
08-Nov-20 08:29 33.813635 -118.144454 134 68ft 23kts
08-Nov-20 08:30 33.809423 -118.139382 135 68ft 19kts
08-Nov-20 08:31 33.807493 -118.137617 228 68ft 0kts
08-Nov-20 08:32 33.807559 -118.138991 314 68ft 13kts
08-Nov-20 08:33 33.826925 -118.162136 313 483ft 159kts
08-Nov-20 08:34 33.855002 -118.206876 284 2488ft 199kts
08-Nov-20 08:35 33.857814 -118.274659 260 5562ft 212kts
08-Nov-20 08:36 33.849987 -118.348085 262 6018ft 220kts
08-Nov-20 08:37 33.842275 -118.423220 267 7956ft 250kts
08-Nov-20 08:38 33.882657 -118.493289 312 8012ft 267kts
08-Nov-20 08:39 33.935801 -118.555855 312 8002ft 267kts
08-Nov-20 08:40 33.999954 -118.597422 348 8009ft 277kts
08-Nov-20 08:41 34.076174 -118.611330 347 7993ft 276kts
08-Nov-20 08:42 34.152514 -118.624974 347 8972ft 280kts
08-Nov-20 08:43 34.231764 -118.639091 345 11915ft 310kts
08-Nov-20 08:44 34.308871 -118.692313 304 13927ft 338kts
08-Nov-20 08:45 34.367456 -118.780856 303 17576ft 338kts
08-Nov-20 08:46 34.426945 -118.871468 304 20471ft 348kts
08-Nov-20 08:47 34.488191 -118.965000 305 22880ft 358kts
08-Nov-20 08:48 34.551181 -119.060586 306 24848ft 369kts
08-Nov-20 08:49 34.615754 -119.158970 306 26723ft 372kts
08-Nov-20 08:50 34.678735 -119.255466 306 29221ft 359kts
08-Nov-20 08:51 34.740150 -119.349863 307 31294ft 353kts
08-Nov-20 08:52 34.800788 -119.443328 307 33073ft 350kts
08-Nov-20 08:53 34.861033 -119.536438 307 34549ft 351kts
08-Nov-20 08:54 34.922827 -119.632206 306 35322ft 363kts
08-Nov-20 08:55 34.985793 -119.730055 306 35913ft 374kts
08-Nov-20 08:56 35.050469 -119.830852 306 35911ft 372kts
08-Nov-20 08:57 35.113301 -119.929046 306 35911ft 366kts
08-Nov-20 08:58 35.175921 -120.027262 307 35915ft 363kts
08-Nov-20 08:59 35.237173 -120.123466 308 35919ft 358kts
08-Nov-20 09:00 35.298409 -120.219956 308 35907ft 359kts
08-Nov-20 09:01 35.359896 -120.316589 308 35899ft 359kts
08-Nov-20 09:03 35.421019 -120.413538 307 35902ft 359kts
08-Nov-20 09:04 35.481907 -120.510561 308 35900ft 358kts
08-Nov-20 09:05 35.550990 -120.597497 321 35893ft 359kts
08-Nov-20 09:06 35.634340 -120.665911 323 35890ft 360kts
08-Nov-20 09:07 35.718292 -120.732381 323 35890ft 359kts
08-Nov-20 09:08 35.802251 -120.798102 324 35888ft 357kts
08-Nov-20 09:09 35.886008 -120.864339 324 35647ft 357kts
08-Nov-20 09:10 35.969233 -120.930363 324 32677ft 355kts
08-Nov-20 09:11 36.047177 -120.997520 321 30834ft 327kts
08-Nov-20 09:12 36.118482 -121.065801 322 28960ft 318kts
08-Nov-20 09:13 36.187415 -121.131444 321 27137ft 308kts
08-Nov-20 09:14 36.254602 -121.195721 321 25358ft 300kts
08-Nov-20 09:15 36.319697 -121.258198 321 23629ft 292kts
08-Nov-20 09:16 36.383865 -121.319665 321 21934ft 290kts
08-Nov-20 09:16 36.436757 -121.370771 320 20531ft 288kts
08-Nov-20 09:18 36.514328 -121.435601 333 18577ft 291kts
08-Nov-20 09:18 36.578034 -121.463974 335 17231ft 290kts
08-Nov-20 09:20 36.664400 -121.500631 335 15142ft 279kts
08-Nov-20 09:20 36.725926 -121.526696 336 13468ft 278kts
08-Nov-20 09:22 36.811439 -121.562951 337 11075ft 279kts
08-Nov-20 09:22 36.872730 -121.589047 338 9519ft 275kts
08-Nov-20 09:23 36.942281 -121.618660 339 8218ft 256kts
08-Nov-20 09:24 37.006129 -121.645758 339 7278ft 229kts
08-Nov-20 09:25 37.065665 -121.671028 340 5972ft 218kts
08-Nov-20 09:26 37.121557 -121.694833 338 4061ft 194kts
08-Nov-20 09:27 37.171853 -121.720593 320 3985ft 197kts
08-Nov-20 09:28 37.210895 -121.763846 318 3753ft 165kts
08-Nov-20 09:29 37.242628 -121.798588 318 2978ft 138kts
08-Nov-20 09:30 37.271498 -121.830134 317 2237ft 138kts
08-Nov-20 09:31 37.299209 -121.860433 317 1523ft 124kts
08-Nov-20 09:32 37.325883 -121.889627 317 853ft 124kts
08-Nov-20 09:33 37.351697 -121.917855 318 239ft 120kts
08-Nov-20 09:34 37.368316 -121.935801 352 64ft 21kts
08-Nov-20 09:35 37.369654 -121.934989 50 63ft 15kts
08-Nov-20 09:36 37.369096 -121.931176 138 63ft 15kts
08-Nov-20 09:37 37.365864 -121.927627 139 63ft 17kts
08-Nov-20 09:38 37.364912 -121.925356 47 63ft 0kts
08-Nov-20 09:39 37.364917 -121.925349 47 63ft 0kts
08-Nov-20 09:40 37.364917 -121.925349 47 63ft 0kts
08-Nov-20 09:41 37.364917 -121.925349 47 63ft 0kts
08-Nov-20 09:42 37.364917 -121.925349 47 63ft 0kts
08-Nov-20 09:43 37.364917 -121.925349 47 63ft 0kts

Navigation Log

Ident Type
Flight plan parsing failed, navigation log unavailable